Time;durP1;ratioP1;P1;durP2;ratioP2;P2;SDS_P1;SDS_P2;PMS_P1;PMS_P2;Temp;Humidity;BMP_temperature;BMP_pressure;BME280_temperature;BME280_humidity;BME280_pressure;Samples;Min_cycle;Max_cycle;Signal;HPM_P1;HPM_P2
2022/12/19 00:11:29;;;;;;;;;0.00;0.00;;;;;-149.69;nan;80300.06;5031990;28;27746;-96
2022/12/19 00:13:56;;;;;;;;;0.00;0.00;;;;;-149.69;nan;93093.72;5029417;28;27773;-96
2022/12/19 00:16:24;;;;;;;;;0.00;0.00;;;;;-149.69;nan;107213.66;5028083;28;28060;-96
2022/12/19 00:18:51;;;;;;;;;0.00;0.00;;;;;-149.69;nan;109528.88;5009123;28;29874;-95
2022/12/19 00:21:23;;;;;;;;;0.00;0.00;;;;;-149.69;nan;95913.75;5023766;28;28492;-96
2022/12/19 00:23:48;;;;;;;;;21.00;21.00;;;;;-149.69;nan;83622.50;5004445;28;27766;-96
2022/12/19 00:26:25;;;;;;;;;0.00;0.00;;;;;-149.69;nan;76980.38;5006001;28;27865;-95
2022/12/19 00:28:57;;;;;;;;;0.00;0.00;;;;;-149.69;nan;90275.63;5009197;28;29981;-96
2022/12/19 00:31:24;;;;;;;;;0.00;0.00;;;;;-149.69;nan;96170.22;5012048;28;28517;-96
2022/12/19 00:33:50;;;;;;;;;0.00;0.00;;;;;-149.69;nan;96939.72;5008953;28;27836;-96
2022/12/19 00:36:18;;;;;;;;;0.00;0.00;;;;;-149.69;nan;98222.53;5007409;28;27905;-96
2022/12/19 00:38:45;;;;;;;;;0.00;0.00;;;;;-149.69;nan;74683.72;5010200;28;30205;-96
2022/12/19 00:41:14;;;;;;;;;0.00;0.00;;;;;-149.69;nan;74173.56;5017825;28;28769;-96
2022/12/19 00:43:40;;;;;;;;;0.00;0.00;;;;;-149.69;nan;74683.72;5024441;28;27965;-96
2022/12/19 00:46:08;;;;;;;;;0.00;0.00;;;;;-149.69;nan;63148.75;4989568;28;27906;-96
2022/12/19 00:48:39;;;;;;;;;0.00;0.00;;;;;-149.69;nan;85924.25;4992917;28;28364;-96
2022/12/19 00:51:24;;;;;;;;;0.00;0.00;;;;;-149.69;nan;84133.88;5007833;28;28068;-96
2022/12/19 00:53:51;;;;;;;;;0.00;0.00;;;;;-149.69;nan;89251.34;4990517;28;27782;-96
2022/12/19 00:56:25;;;;;;;;;0.00;0.00;;;;;-149.69;nan;92837.44;5020880;28;27834;-96
2022/12/19 00:58:53;;;;;;;;;0.00;0.00;;;;;-149.69;nan;90787.84;5022772;28;28323;-96
2022/12/19 01:03:56;;;;;;;;;0.00;0.00;;;;;-149.69;nan;85412.63;5010215;28;27967;-96
2022/12/19 01:06:22;;;;;;;;;0.00;0.00;;;;;-149.69;nan;71137.69;4994851;28;28051;-96
2022/12/19 01:08:52;;;;;;;;;0.00;0.00;;;;;-149.69;nan;67169.09;5009929;28;30240;-96
2022/12/19 01:12:44;;;;;;;;;0.00;0.00;;;;;-149.69;nan;62131.41;4992816;28;27947;-96
2022/12/19 01:14:04;;;;;;;;;0.00;0.00;;;;;-149.69;nan;58306.72;5006571;28;28433;-96
2022/12/19 01:16:33;;;;;;;;;0.00;0.00;;;;;-149.69;nan;80811.03;4991780;28;27936;-96
2022/12/19 01:18:58;;;;;;;;;0.00;0.00;;;;;-149.69;nan;80555.53;4972459;28;29993;-96
2022/12/19 01:21:24;;;;;;;;;0.00;0.00;;;;;-149.69;nan;82344.31;5002253;28;28504;-96
2022/12/19 01:23:49;;;;;;;;;0.00;0.00;;;;;-149.69;nan;88227.34;4969814;28;28423;-96
2022/12/19 01:26:15;;;;;;;;;3.00;3.00;;;;;-149.69;nan;79278.31;4971647;28;27962;-96
2022/12/19 01:28:40;;;;;;;;;0.00;0.00;;;;;-149.69;nan;59219.84;4985364;28;30167;-96
2022/12/19 01:31:06;;;;;;;;;0.00;0.00;;;;;-149.69;nan;59879.03;4988660;28;28533;-97
2022/12/19 01:33:31;;;;;;;;;0.00;0.00;;;;;-149.69;nan;58304.72;4984904;28;27980;-96
2022/12/19 01:35:57;;;;;;;;;0.00;0.00;;;;;-149.69;nan;59468.03;5006109;28;27933;-96
2022/12/19 01:38:22;;;;;;;;;0.00;0.00;;;;;-149.69;nan;58030.81;4988999;28;30136;-96
2022/12/19 01:40:53;;;;;;;;;0.00;0.00;;;;;-149.69;nan;58316.63;4991707;28;28954;-96
2022/12/19 01:43:19;;;;;;;;;0.00;0.00;;;;;-149.69;nan;59853.22;4989889;28;27870;-96
2022/12/19 01:45:48;;;;;;;;;0.00;0.00;;;;;-149.69;nan;61277.19;4974559;28;27933;-96
2022/12/19 01:48:34;;;;;;;;;0.00;0.00;;;;;-149.69;nan;63502.50;4984633;28;29684;-96
2022/12/19 01:51:13;;;;;;;;;0.00;0.00;;;;;-149.69;nan;63985.50;4984321;28;29549;-96
2022/12/19 01:53:44;;;;;;;;;0.00;0.00;;;;;-149.69;nan;65420.88;4985806;28;27875;-96
2022/12/19 01:56:10;;;;;;;;;0.00;0.00;;;;;-149.69;nan;57479.09;4986080;28;27969;-96
2022/12/19 01:58:41;;;;;;;;;0.00;0.00;;;;;-149.69;nan;55762.94;4984499;28;30441;-96
2022/12/19 02:01:07;;;;;;;;;0.00;0.00;;;;;-149.69;nan;112104.91;4990338;28;28187;-96
2022/12/19 02:03:39;;;;;;;;;0.00;0.00;;;;;-149.69;nan;112104.91;4992010;28;27763;-96
2022/12/19 02:06:11;;;;;;;;;0.00;0.00;;;;;-149.69;nan;112104.91;4990440;28;27882;-96
2022/12/19 02:08:38;;;;;;;;;0.00;0.00;;;;;-149.69;nan;112104.91;4991701;28;28184;-96
2022/12/19 02:11:03;;;;;;;;;0.00;0.00;;;;;-149.69;nan;81322.06;4988103;28;27942;-96
2022/12/19 02:13:29;;;;;;;;;0.00;0.00;;;;;-149.69;nan;64909.88;4983839;28;27816;-96
2022/12/19 02:16:07;;;;;;;;;0.00;0.00;;;;;-149.69;nan;62000.28;4983301;28;27929;-96
2022/12/19 02:18:50;;;;;;;;;0.00;0.00;;;;;-149.69;nan;60037.88;5001908;28;30117;-96
2022/12/19 02:21:47;;;;;;;;;0.00;0.00;;;;;-149.69;nan;59207.94;4989605;28;28511;-96
2022/12/19 02:24:47;;;;;;;;;0.00;0.00;;;;;-149.69;nan;60065.69;4986673;28;27743;-96
2022/12/19 02:27:52;;;;;;;;;0.00;0.00;;;;;-149.69;nan;58020.91;5002286;28;28453;-96
2022/12/19 02:31:00;;;;;;;;;0.00;0.00;;;;;-149.69;nan;49139.31;4982812;28;30152;-96
2022/12/19 02:33:41;;;;;;;;;0.00;0.00;;;;;-149.69;nan;51195.38;4981436;28;28571;-96
2022/12/19 02:36:14;;;;;;;;;0.00;0.00;;;;;-149.69;nan;50492.06;4980944;28;27863;-96
2022/12/19 02:38:56;;;;;;;;;0.00;0.00;;;;;-149.69;nan;112104.91;4976911;28;45355;-96
2022/12/19 02:41:28;;;;;;;;;0.00;0.00;;;;;-149.69;nan;112104.91;4992785;28;43143;-96
2022/12/19 02:43:55;;;;;;;;;0.00;0.00;;;;;-149.69;nan;112104.91;4989853;28;28474;-96
2022/12/19 02:46:26;;;;;;;;;0.00;0.00;;;;;-149.69;nan;100532.66;4993328;28;44626;-96
2022/12/19 02:48:55;;;;;;;;;0.00;0.00;;;;;-149.69;nan;112104.91;4976873;28;28489;-96
2022/12/19 02:51:21;;;;;;;;;0.00;0.00;;;;;-149.69;nan;112104.91;4987220;28;29942;-96
2022/12/19 02:54:10;;;;;;;;;0.00;0.00;;;;;-149.69;nan;112104.91;5003296;28;28548;-96
2022/12/19 02:57:03;;;;;;;;;0.00;0.00;;;;;-149.69;nan;110043.56;4996401;28;27819;-96
2022/12/19 02:59:39;;;;;;;;;0.00;0.00;;;;;-149.69;nan;112104.91;4994754;28;27991;-96
2022/12/19 03:02:37;;;;;;;;;0.00;0.00;;;;;-149.69;nan;112104.91;4998372;28;28542;-96
2022/12/19 03:05:26;;;;;;;;;0.00;0.00;;;;;-149.69;nan;109786.22;4994719;28;28503;-96
2022/12/19 03:08:38;;;;;;;;;0.00;0.00;;;;;-149.69;100.00;58464.25;4997133;28;42317;-96
2022/12/19 03:11:10;;;;;;;;;0.00;0.00;;;;;-149.69;nan;88227.34;4876889;29;27873;-96
2022/12/19 03:13:48;;;;;;;;;0.00;0.00;;;;;-149.69;nan;112104.91;4873959;29;38564;-96
2022/12/19 03:16:35;;;;;;;;;0.00;0.00;;;;;-149.69;nan;112104.91;4876864;29;40239;-96
2022/12/19 03:19:11;;;;;;;;;0.00;0.00;;;;;-149.69;nan;70910.69;4879965;29;28512;-96
2022/12/19 03:24:18;;;;;;;;;0.00;0.00;;;;;-149.69;nan;100019.19;5115460;23;28830;-96
2022/12/19 03:26:55;;;;;;;;;0.00;0.00;;;;;-149.69;nan;112104.91;5150571;23;28063;-96
2022/12/19 03:29:32;;;;;;;;;0.00;0.00;;;;;-149.69;nan;112104.91;5000718;28;39618;-96
2022/12/19 03:37:16;;;;;;;;;0.00;0.00;;;;;-149.69;100.00;58464.25;5558460;23;46174;-96
2022/12/19 03:39:49;;;;;;;;;0.00;0.00;;;;;-149.69;100.00;58464.25;4982676;28;44704;-96
2022/12/19 03:45:09;;;;;;;;;0.00;0.00;;;;;-149.69;100.00;58464.25;4989050;28;45195;-96
2022/12/19 03:47:51;;;;;;;;;0.00;0.00;;;;;-149.69;nan;112104.91;4978873;28;45650;-96
2022/12/19 03:50:28;;;;;;;;;0.00;0.00;;;;;-149.69;nan;112104.91;4976780;28;35049;-96
2022/12/19 03:53:07;;;;;;;;;0.00;0.00;;;;;-149.69;nan;112104.91;4977690;28;27905;-95
2022/12/19 03:55:45;;;;;;;;;0.00;0.00;;;;;-149.69;nan;-17594.56;5291302;23;28210;-96
2022/12/19 03:58:29;;;;;;;;;0.00;0.00;;;;;-149.69;nan;-22042.56;5016304;28;27794;-96
2022/12/19 04:00:56;;;;;;;;;0.00;0.00;;;;;-149.69;nan;-17594.56;4998973;28;27790;-96
2022/12/19 04:03:23;;;;;;;;;0.00;0.00;;;;;-149.69;nan;-4614.91;5008023;28;27916;-96
2022/12/19 04:05:56;;;;;;;;;0.00;0.00;;;;;-149.69;100.00;58464.25;5011261;28;28258;-95
2022/12/19 04:08:23;;;;;;;;;0.00;0.00;;;;;-149.69;100.00;58464.25;4975549;28;28307;-96
2022/12/19 04:11:10;;;;;;;;;0.00;0.00;;;;;-149.69;100.00;58464.25;4982108;28;28260;-96
2022/12/19 04:13:46;;;;;;;;;0.00;0.00;;;;;-149.69;100.00;58464.25;5013072;28;28154;-96
2022/12/19 04:16:35;;;;;;;;;0.00;0.00;;;;;-149.69;100.00;58464.25;4995012;28;28674;-96
2022/12/19 04:24:25;;;;;;;;;0.00;0.00;;;;;-149.69;100.00;58464.25;5004313;28;29481;-96
2022/12/19 04:26:53;;;;;;;;;0.00;0.00;;;;;-149.69;100.00;58464.25;4988033;28;29606;-96
2022/12/19 04:29:18;;;;;;;;;0.00;0.00;;;;;-149.69;100.00;58464.25;5005024;28;28351;-96
2022/12/19 04:31:45;;;;;;;;;0.00;0.00;;;;;-149.69;100.00;58464.25;5003941;28;28512;-96
2022/12/19 04:34:18;;;;;;;;;0.00;0.00;;;;;-149.69;100.00;58464.25;4992308;28;44847;-96
2022/12/19 04:36:47;;;;;;;;;0.00;0.00;;;;;-149.69;100.00;58464.25;4983101;28;47281;-96
2022/12/19 04:39:13;;;;;;;;;0.00;0.00;;;;;-149.69;nan;112104.91;5007508;28;44916;-96
2022/12/19 04:41:50;;;;;;;;;0.00;0.00;;;;;-149.69;nan;112104.91;5014186;28;44562;-96
2022/12/19 04:44:16;;;;;;;;;0.00;0.00;;;;;-149.69;nan;112002.31;4994106;28;40384;-96
2022/12/19 04:46:41;;;;;;;;;0.00;0.00;;;;;;;;4977786;28;30222;-96
2022/12/19 04:49:08;;;;;;;;;0.00;0.00;;;;;-149.69;nan;112104.91;5025610;28;38845;-96
2022/12/19 04:51:35;;;;;;;;;0.00;0.00;;;;;-149.69;nan;104086.59;4996037;28;474239;-95
2022/12/19 04:54:01;;;;;;;;;0.00;0.00;;;;;-149.69;100.00;58464.25;5012450;28;27931;-96
2022/12/19 04:56:28;;;;;;;;;0.00;0.00;;;;;-149.69;nan;112104.91;5000189;28;29375;-96
2022/12/19 04:58:58;;;;;;;;;0.00;0.00;;;;;-149.69;100.00;58464.25;5015573;28;29102;-96
2022/12/19 06:12:23;;;;;;;;;0.00;0.00;;;;;-149.69;100.00;58464.25;5589648;23;30504;-96
2022/12/19 06:35:40;;;;;;;;;0.00;0.00;;;;;-149.69;100.00;58464.25;4913697;29;29007;-96
2022/12/19 06:38:05;;;;;;;;;0.00;0.00;;;;;-149.69;100.00;58464.25;4850551;29;1727834;-96
2022/12/19 06:56:05;;;;;;;;;0.00;0.00;;;;;-149.69;100.00;58464.25;4886417;29;466812;-96
2022/12/19 06:58:32;;;;;;;;;0.00;0.00;;;;;-149.69;100.00;58464.25;4902259;29;238859;-96
2022/12/19 07:01:34;;;;;;;;;0.00;0.00;;;;;-149.69;100.00;58464.25;4907188;29;234260;-96
2022/12/19 07:04:07;;;;;;;;;0.00;0.00;;;;;-149.69;100.00;58464.25;4835175;29;816574;-96
2022/12/19 07:09:45;;;;;;;;;0.00;0.00;;;;;-149.69;100.00;58464.25;5832261;23;29660;-96
2022/12/19 07:12:11;;;;;;;;;0.00;0.00;;;;;-149.69;100.00;58464.25;4945545;28;29739;-96
2022/12/19 07:14:37;;;;;;;;;0.00;0.00;;;;;-149.69;100.00;58464.25;4920220;29;290925;-96
2022/12/19 07:22:19;;;;;;;;;18.00;18.00;;;;;-149.69;100.00;58464.25;5482579;23;29535;-95
2022/12/19 07:25:08;;;;;;;;;0.00;0.00;;;;;-149.69;100.00;58464.25;3242373;23;29960;-86
2022/12/19 07:27:33;;;;;;;;;0.00;0.00;;;;;-149.69;100.00;58464.25;4913272;29;28613;-83
2022/12/19 07:32:36;;;;;;;;;0.00;0.00;;;;;-149.69;100.00;58464.25;1597282;29;121809537;-84
2022/12/19 07:35:13;;;;;;;;;0.00;0.00;;;;;-149.69;100.00;58464.25;4407793;29;14348046;-85
2022/12/19 07:37:38;;;;;;;;;0.00;0.00;;;;;-149.69;100.00;58464.25;4909516;28;28524;-86
2022/12/19 07:40:04;;;;;;;;;0.00;0.00;;;;;-149.69;100.00;58464.25;4914066;28;28396;-87
2022/12/19 07:42:30;;;;;;;;;0.00;0.00;;;;;-149.69;100.00;58464.25;4913426;28;28384;-87
2022/12/19 07:44:55;;;;;;;;;0.00;0.00;;;;;-149.69;100.00;58464.25;4911172;29;28521;-86
2022/12/19 07:47:20;;;;;;;;;0.00;0.00;;;;;-149.69;100.00;58464.25;4913024;29;28549;-89
2022/12/19 07:49:46;;;;;;;;;0.00;0.00;;;;;-149.69;100.00;58464.25;4926085;28;29225;-87
2022/12/19 07:52:11;;;;;;;;;0.00;0.00;;;;;-149.69;100.00;58464.25;4926954;28;28444;-87
2022/12/19 07:54:36;;;;;;;;;0.00;0.00;;;;;-149.69;100.00;58464.25;4911123;29;28407;-87
2022/12/19 07:57:02;;;;;;;;;0.00;0.00;;;;;-149.69;100.00;58464.25;4913244;29;28340;-87
2022/12/19 07:59:27;;;;;;;;;0.00;0.00;;;;;-149.69;100.00;58464.25;4911835;28;28578;-87
2022/12/19 08:01:53;;;;;;;;;0.00;0.00;;;;;-149.69;100.00;58464.25;4901991;28;30602;-87
2022/12/19 08:04:18;;;;;;;;;0.00;0.00;;;;;-149.69;100.00;58464.25;4908393;28;28461;-87
2022/12/19 08:06:45;;;;;;;;;0.00;0.00;;;;;-149.69;100.00;58464.25;4909310;28;28551;-88
2022/12/19 08:09:11;;;;;;;;;0.00;0.00;;;;;-149.69;100.00;58464.25;4909488;28;29254;-87
2022/12/19 08:11:36;;;;;;;;;0.00;0.00;;;;;-149.69;100.00;58464.25;4904109;28;28578;-87
2022/12/19 08:14:02;;;;;;;;;0.00;0.00;;;;;-149.69;100.00;58464.25;4916337;28;28619;-87
2022/12/19 08:16:28;;;;;;;;;0.00;0.00;;;;;-149.69;100.00;58464.25;4914110;28;28429;-88
2022/12/19 08:18:54;;;;;;;;;0.00;0.00;;;;;-149.69;100.00;58464.25;4912618;29;28779;-89
2022/12/19 08:21:19;;;;;;;;;0.00;0.00;;;;;-149.69;100.00;58464.25;4913857;28;28609;-88
2022/12/19 08:23:45;;;;;;;;;0.00;0.00;;;;;-149.69;100.00;58464.25;4911444;29;28473;-91
2022/12/19 08:26:13;;;;;;;;;0.00;0.00;;;;;-149.69;100.00;58464.25;4906366;28;28549;-91
2022/12/19 08:28:39;;;;;;;;;0.00;0.00;;;;;-149.69;100.00;58464.25;4912485;28;29815;-91
2022/12/19 08:31:09;;;;;;;;;0.00;0.00;;;;;-149.69;nan;110815.69;4915363;28;28582;-91
2022/12/19 08:33:35;;;;;;;;;0.00;0.00;;;;;-149.69;nan;100789.41;4913394;28;28517;-88
2022/12/19 08:36:05;;;;;;;;;0.67;0.67;;;;;-149.69;nan;102330.31;4912516;28;27973;-88
2022/12/19 08:38:31;;;;;;;;;0.00;0.00;;;;;-149.69;nan;76089.06;4912076;28;30745;-89
2022/12/19 08:40:56;;;;;;;;;0.00;0.00;;;;;-149.69;100.00;58464.25;4910606;29;28659;-89
2022/12/19 08:43:22;;;;;;;;;0.00;0.00;;;;;-149.69;100.00;58464.25;4907399;29;28592;-89
2022/12/19 08:45:49;;;;;;;;;0.00;0.00;;;;;-149.69;100.00;58464.25;4911741;28;28571;-88
2022/12/19 08:48:15;;;;;;;;;0.00;0.00;;;;;-149.69;100.00;58464.25;4910011;29;28642;-89
2022/12/19 08:50:48;;;;;;;;;0.00;0.00;;;;;-149.69;100.00;58464.25;4914324;28;28550;-88
2022/12/19 08:53:13;;;;;;;;;0.00;0.00;;;;;-149.69;100.00;58464.25;4912086;28;28619;-88
2022/12/19 08:55:39;;;;;;;;;0.00;0.00;;;;;-149.69;100.00;58464.25;4912054;29;31912;-89
2022/12/19 08:58:04;;;;;;;;;0.00;0.00;;;;;-149.69;100.00;58464.25;4910881;29;30118;-89
2022/12/19 09:00:30;;;;;;;;;0.00;0.00;;;;;-149.69;100.00;58464.25;4911536;28;28753;-88
2022/12/19 09:02:55;;;;;;;;;0.00;0.00;;;;;-149.69;100.00;58464.25;4912429;28;28482;-88
2022/12/19 09:05:20;;;;;;;;;0.00;0.00;;;;;-149.69;100.00;58464.25;4909275;29;28635;-88
2022/12/19 09:07:45;;;;;;;;;0.00;0.00;;;;;-149.69;100.00;58464.25;4925098;28;30808;-88
2022/12/19 09:10:11;;;;;;;;;0.00;0.00;;;;;-149.69;100.00;58464.25;4907764;29;34376;-89
2022/12/19 09:12:36;;;;;;;;;0.00;0.00;;;;;-149.69;100.00;58464.25;4911483;28;28459;-87
2022/12/19 09:15:02;;;;;;;;;0.00;0.00;;;;;-149.69;100.00;58464.25;4905572;28;28683;-88
2022/12/19 09:17:27;;;;;;;;;0.00;0.00;;;;;-149.69;100.00;58464.25;4912281;28;28561;-88
2022/12/19 09:19:52;;;;;;;;;0.00;0.00;;;;;-149.69;100.00;58464.25;4912406;28;28578;-88
2022/12/19 09:22:17;;;;;;;;;0.00;0.00;;;;;-149.69;100.00;58464.25;4912435;28;28518;-88
2022/12/19 09:24:43;;;;;;;;;0.00;0.00;;;;;-149.69;100.00;58464.25;4908037;28;32940;-88
2022/12/19 09:27:08;;;;;;;;;0.00;0.00;;;;;-149.69;100.00;58464.25;4912171;29;28586;-88
2022/12/19 09:29:34;;;;;;;;;0.00;0.00;;;;;-149.69;100.00;58464.25;4912599;28;28557;-88
2022/12/19 09:31:59;;;;;;;;;0.00;0.00;;;;;-149.69;100.00;58464.25;4909551;28;28608;-88
2022/12/19 09:34:27;;;;;;;;;0.00;0.00;;;;;-149.69;100.00;58464.25;4912490;28;28526;-88
2022/12/19 09:36:52;;;;;;;;;0.00;0.00;;;;;-149.69;100.00;58464.25;4907996;28;29411;-88
2022/12/19 09:39:18;;;;;;;;;0.00;0.00;;;;;-149.69;100.00;58464.25;4926034;28;29751;-88
2022/12/19 09:42:13;;;;;;;;;0.00;0.00;;;;;-149.69;100.00;58464.25;4910652;28;28623;-88
2022/12/19 09:44:51;;;;;;;;;0.00;0.00;;;;;-149.69;100.00;58464.25;4908629;28;28634;-87
2022/12/19 09:47:17;;;;;;;;;0.00;0.00;;;;;-149.69;100.00;58464.25;4903192;28;29596;-88
2022/12/19 09:49:46;;;;;;;;;0.00;0.00;;;;;-149.69;100.00;58464.25;4910592;28;29665;-88
2022/12/19 09:52:28;;;;;;;;;0.00;0.00;;;;;-149.69;100.00;58464.25;4912986;28;28446;-88
2022/12/19 09:55:01;;;;;;;;;0.00;0.00;;;;;-149.69;100.00;58464.25;4909566;29;28591;-87
2022/12/19 09:57:32;;;;;;;;;0.00;0.00;;;;;-149.69;100.00;58464.25;4925688;28;30415;-88
2022/12/19 10:00:06;;;;;;;;;0.00;0.00;;;;;-149.69;100.00;58464.25;4907621;28;28583;-88
2022/12/19 10:02:34;;;;;;;;;0.00;0.00;;;;;-149.69;100.00;58464.25;4912318;28;28447;-88
2022/12/19 10:05:26;;;;;;;;;0.00;0.00;;;;;-149.69;100.00;58464.25;4911325;28;28547;-88
2022/12/19 10:07:52;;;;;;;;;0.00;0.00;;;;;-149.69;100.00;58464.25;4904588;29;28740;-88
2022/12/19 10:10:32;;;;;;;;;0.00;0.00;;;;;-149.69;100.00;58464.25;4908903;28;28617;-88
2022/12/19 10:13:12;;;;;;;;;0.00;0.00;;;;;-149.69;100.00;58464.25;4923480;28;28329;-88
2022/12/19 10:15:52;;;;;;;;;0.00;0.00;;;;;-149.69;100.00;58464.25;4909951;28;28514;-88
2022/12/19 10:18:20;;;;;;;;;0.00;0.00;;;;;-149.69;100.00;58464.25;4910834;28;28533;-87
2022/12/19 10:21:07;;;;;;;;;0.00;0.00;;;;;-149.69;100.00;58464.25;4910434;28;28480;-86
2022/12/19 10:23:51;;;;;;;;;0.00;0.00;;;;;-149.69;100.00;58464.25;4922597;28;28597;-86
2022/12/19 10:26:23;;;;;;;;;0.00;0.00;;;;;-149.69;100.00;58464.25;4910654;28;28634;-86
2022/12/19 10:29:06;;;;;;;;;0.00;0.00;;;;;-149.69;100.00;58464.25;4910862;29;28542;-88
2022/12/19 10:31:37;;;;;;;;;0.00;0.00;;;;;-149.69;100.00;58464.25;4906375;29;28654;-88
2022/12/19 10:34:18;;;;;;;;;0.00;0.00;;;;;-149.69;100.00;58464.25;4909143;28;28539;-88
2022/12/19 10:36:56;;;;;;;;;0.00;0.00;;;;;-149.69;100.00;58464.25;4906473;28;28545;-87
2022/12/19 10:39:34;;;;;;;;;0.00;0.00;;;;;-149.69;100.00;58464.25;4910350;28;28538;-87
2022/12/19 10:42:37;;;;;;;;;0.00;0.00;;;;;-149.69;100.00;58464.25;4908865;29;28526;-88
2022/12/19 10:45:12;;;;;;;;;0.00;0.00;;;;;-149.69;100.00;58464.25;4908704;28;28463;-87
2022/12/19 10:47:39;;;;;;;;;0.00;0.00;;;;;-149.69;100.00;58464.25;4914451;28;27917;-88
2022/12/19 10:50:04;;;;;;;;;0.00;0.00;;;;;-149.69;100.00;58464.25;4907078;28;31119;-87
2022/12/19 10:53:02;;;;;;;;;0.00;0.00;;;;;-149.69;100.00;58464.25;4923916;28;28827;-88
2022/12/19 10:55:50;;;;;;;;;0.00;0.00;;;;;-149.69;100.00;58464.25;4911807;29;28603;-88
2022/12/19 10:58:24;;;;;;;;;0.00;0.00;;;;;-149.69;100.00;58464.25;4911221;28;28534;-88
2022/12/19 11:00:52;;;;;;;;;0.00;0.00;;;;;-149.69;100.00;58464.25;4910328;28;28665;-88
2022/12/19 11:03:18;;;;;;;;;0.00;0.00;;;;;-149.69;100.00;58464.25;4913755;29;28763;-87
2022/12/19 11:05:54;;;;;;;;;0.00;0.00;;;;;-149.69;100.00;58464.25;4911786;29;28529;-87
2022/12/19 11:08:25;;;;;;;;;0.00;0.00;;;;;-149.69;100.00;58464.25;4908058;28;28846;-87
2022/12/19 11:11:08;;;;;;;;;0.00;0.00;;;;;-149.69;100.00;58464.25;4909480;28;31255;-87
2022/12/19 11:13:33;;;;;;;;;0.00;0.00;;;;;-149.69;100.00;58464.25;4924953;28;28599;-87
2022/12/19 11:16:01;;;;;;;;;0.00;0.00;;;;;-149.69;100.00;58464.25;4910675;29;28455;-87
2022/12/19 11:18:52;;;;;;;;;0.00;0.00;;;;;-149.69;100.00;58464.25;4909014;29;28459;-88
2022/12/19 11:21:30;;;;;;;;;0.00;0.00;;;;;-149.69;100.00;58464.25;4910387;28;29548;-89
2022/12/19 11:23:58;;;;;;;;;0.00;0.00;;;;;-149.69;100.00;58464.25;4911787;28;28549;-89
2022/12/19 11:26:39;;;;;;;;;0.00;0.00;;;;;-149.69;100.00;58464.25;4911037;29;28847;-93
2022/12/19 11:29:18;;;;;;;;;3.00;3.00;;;;;-149.69;100.00;58464.25;4928857;28;28872;-90
2022/12/19 11:31:46;;;;;;;;;0.00;0.00;;;;;-149.69;100.00;58464.25;4914004;28;28660;-88
2022/12/19 11:34:20;;;;;;;;;0.00;0.00;;;;;-149.69;100.00;58464.25;4909807;28;28568;-90
2022/12/19 11:36:45;;;;;;;;;0.00;0.00;;;;;-149.69;100.00;58464.25;4908477;29;28605;-91
2022/12/19 11:39:34;;;;;;;;;0.00;0.00;;;;;-149.69;100.00;58464.25;4910647;29;27986;-90
2022/12/19 11:42:02;;;;;;;;;0.00;0.00;;;;;-149.69;100.00;58464.25;4909428;28;30116;-90
2022/12/19 11:44:48;;;;;;;;;0.00;0.00;;;;;-149.69;100.00;58464.25;4909442;29;28527;-89
2022/12/19 11:47:34;;;;;;;;;0.00;0.00;;;;;-149.69;100.00;58464.25;4910656;29;28583;-90
2022/12/19 11:50:16;;;;;;;;;0.00;0.00;;;;;-149.69;100.00;58464.25;4910768;29;28532;-87
2022/12/19 11:53:01;;;;;;;;;0.00;0.00;;;;;-149.69;100.00;58464.25;4909285;29;28805;-90
2022/12/19 11:55:51;;;;;;;;;0.00;0.00;;;;;-149.69;100.00;58464.25;4912627;29;31298;-89
2022/12/19 11:58:17;;;;;;;;;0.33;0.33;;;;;-149.69;100.00;58464.25;4911851;28;28579;-86
2022/12/19 12:00:54;;;;;;;;;0.00;0.00;;;;;-149.69;100.00;58464.25;4911436;28;28571;-87
2022/12/19 12:04:00;;;;;;;;;0.00;0.00;;;;;-149.69;100.00;58464.25;4910581;29;30944;-88
2022/12/19 12:06:33;;;;;;;;;0.00;0.00;;;;;-149.69;100.00;58464.25;4873454;29;28582;-87
2022/12/19 12:09:11;;;;;;;;;0.00;0.00;;;;;-149.69;100.00;58464.25;4872782;29;28571;-88
2022/12/19 12:12:01;;;;;;;;;0.00;0.00;;;;;-149.69;100.00;58464.25;4874598;29;28465;-91
2022/12/19 12:14:46;;;;;;;;;0.00;0.00;;;;;-149.69;100.00;58464.25;4872469;29;28532;-88
2022/12/19 12:17:20;;;;;;;;;0.00;0.00;;;;;-149.69;100.00;58464.25;4872805;29;28454;-88
2022/12/19 12:19:49;;;;;;;;;0.00;0.00;;;;;-149.69;100.00;58464.25;4874821;29;28512;-88
2022/12/19 12:22:25;;;;;;;;;0.00;0.00;;;;;-149.69;100.00;58464.25;4874048;29;28443;-88
2022/12/19 12:24:59;;;;;;;;;0.00;0.00;;;;;-149.69;100.00;58464.25;4873548;29;28794;-87
2022/12/19 12:27:58;;;;;;;;;0.00;0.00;;;;;-149.69;100.00;58464.25;4868804;29;28611;-90
2022/12/19 12:30:24;;;;;;;;;0.00;0.00;;;;;-149.69;100.00;58464.25;4857582;29;28514;-85
2022/12/19 12:33:19;;;;;;;;;0.00;0.00;;;;;-149.69;100.00;58464.25;4857950;29;29904;-84
2022/12/19 12:35:50;;;;;;;;;0.00;0.00;;;;;-149.69;100.00;58464.25;4853224;29;31250;-85
2022/12/19 12:38:38;;;;;;;;;0.00;0.00;;;;;-149.69;100.00;58464.25;4865346;29;29042;-85
2022/12/19 12:41:08;;;;;;;;;0.00;0.00;;;;;-149.69;100.00;58464.25;4873230;29;28639;-85
2022/12/19 12:43:53;;;;;;;;;0.00;0.00;;;;;-149.69;100.00;58464.25;4894410;29;28509;-86
2022/12/19 12:46:23;;;;;;;;;0.00;0.00;;;;;-149.69;100.00;58464.25;4922569;28;30836;-85
2022/12/19 12:49:01;;;;;;;;;0.00;0.00;;;;;-149.69;100.00;58464.25;4912921;28;28613;-84
2022/12/19 12:51:28;;;;;;;;;0.00;0.00;;;;;-149.69;100.00;58464.25;4918157;28;30229;-85
2022/12/19 12:54:09;;;;;;;;;0.00;0.00;;;;;-149.69;100.00;58464.25;4912320;28;28566;-85
2022/12/19 12:56:35;;;;;;;;;0.00;0.00;;;;;-149.69;100.00;58464.25;4907244;28;29397;-85
2022/12/19 12:59:05;;;;;;;;;0.00;0.00;;;;;-149.69;100.00;58464.25;4907428;28;28475;-85
2022/12/19 13:01:39;;;;;;;;;0.00;0.00;;;;;-149.69;100.00;58464.25;4911428;28;29701;-85
2022/12/19 13:04:10;;;;;;;;;0.00;0.00;;;;;-149.69;100.00;58464.25;4926340;28;27925;-85
2022/12/19 13:06:50;;;;;;;;;0.00;0.00;;;;;-149.69;100.00;58464.25;4908268;29;28919;-85
2022/12/19 13:09:25;;;;;;;;;0.00;0.00;;;;;-149.69;100.00;58464.25;4909155;29;29485;-85
2022/12/19 13:14:46;;;;;;;;;0.00;0.00;;;;;-149.69;100.00;58464.25;4907723;28;28363;-85
2022/12/19 13:17:46;;;;;;;;;0.00;0.00;;;;;-149.69;100.00;58464.25;4911781;29;29845;-85
2022/12/19 13:20:12;;;;;;;;;0.00;0.00;;;;;-149.69;100.00;58464.25;4910571;29;28489;-86
2022/12/19 13:22:40;;;;;;;;;0.00;0.00;;;;;-149.69;100.00;58464.25;4909136;28;28364;-86
2022/12/19 13:25:34;;;;;;;;;0.00;0.00;;;;;-149.69;100.00;58464.25;4908509;28;28510;-84
2022/12/19 13:28:02;;;;;;;;;0.00;0.00;;;;;-149.69;100.00;58464.25;4906604;29;31288;-85
2022/12/19 13:30:32;;;;;;;;;0.00;0.00;;;;;-149.69;100.00;58464.25;4910177;29;28650;-85
2022/12/19 13:32:57;;;;;;;;;0.00;0.00;;;;;-149.69;100.00;58464.25;4912256;28;28478;-85
2022/12/19 13:35:28;;;;;;;;;0.00;0.00;;;;;-149.69;100.00;58464.25;4908187;28;28822;-85
2022/12/19 13:38:12;;;;;;;;;0.00;0.00;;;;;-149.69;100.00;58464.25;4906314;29;28555;-86
2022/12/19 13:40:57;;;;;;;;;0.00;0.00;;;;;-149.69;100.00;58464.25;4924655;28;29858;-86
2022/12/19 13:43:45;;;;;;;;;0.00;0.00;;;;;-149.69;100.00;58464.25;4907118;29;28475;-87
2022/12/19 13:46:37;;;;;;;;;0.00;0.00;;;;;-149.69;100.00;58464.25;4907953;28;28694;-86
2022/12/19 13:49:28;;;;;;;;;0.00;0.00;;;;;-149.69;100.00;58464.25;4908400;29;28605;-85
2022/12/19 13:51:56;;;;;;;;;0.00;0.00;;;;;-149.69;100.00;58464.25;4909576;29;29517;-85
2022/12/19 13:54:33;;;;;;;;;0.00;0.00;;;;;-149.69;100.00;58464.25;4912480;28;28922;-86
2022/12/19 13:56:59;;;;;;;;;0.00;0.00;;;;;-149.69;100.00;58464.25;4908194;28;28967;-85
2022/12/19 13:59:29;;;;;;;;;0.00;0.00;;;;;-149.69;100.00;58464.25;4912552;29;29769;-85
2022/12/19 14:02:06;;;;;;;;;0.00;0.00;;;;;-149.69;100.00;58464.25;4909788;29;28464;-86
2022/12/19 14:04:32;;;;;;;;;0.00;0.00;;;;;-149.69;100.00;58464.25;4910364;29;28558;-86
2022/12/19 14:07:38;;;;;;;;;0.00;0.00;;;;;-149.69;100.00;58464.25;4911028;28;28597;-87
2022/12/19 14:10:15;;;;;;;;;0.00;0.00;;;;;-149.69;100.00;58464.25;4907011;28;28794;-85
2022/12/19 14:15:38;;;;;;;;;0.00;0.00;;;;;-149.69;100.00;58464.25;4911292;29;28498;-86
2022/12/19 14:18:16;;;;;;;;;0.00;0.00;;;;;-149.69;100.00;58464.25;4906420;29;28528;-86